Time;durP1;ratioP1;P1;durP2;ratioP2;P2;SDS_P1;SDS_P2;PMS_P1;PMS_P2;Temp;Humidity;BMP_temperature;BMP_pressure;BME280_temperature;BME280_humidity;BME280_pressure;Samples;Min_cycle;Max_cycle;Signal;HPM_P1;HPM_P2
2021/11/02 00:02:07;;;;;;;1.75;1.02;;;;;;;25.82;36.63;95252.84;5029247;28;20053;-58
2021/11/02 00:04:33;;;;;;;1.65;1.02;;;;;;;25.82;36.79;95252.84;5028073;28;20830;-58
2021/11/02 00:06:58;;;;;;;1.45;0.93;;;;;;;25.82;36.56;95253.66;5031855;28;20196;-60
2021/11/02 00:09:28;;;;;;;1.05;0.90;;;;;;;25.82;36.70;95258.91;5016284;28;20032;-59
2021/11/02 00:11:54;;;;;;;2.33;1.02;;;;;;;25.82;36.64;95264.16;5026484;28;20537;-60
2021/11/02 00:14:22;;;;;;;2.08;1.23;;;;;;;25.81;36.59;95261.66;5029646;28;20032;-63
2021/11/02 00:16:53;;;;;;;0.98;0.73;;;;;;;25.82;36.75;95258.91;5031098;28;20033;-60
2021/11/02 00:19:19;;;;;;;1.20;0.80;;;;;;;25.81;36.36;95262.50;5030013;28;20655;-59
2021/11/02 00:21:46;;;;;;;1.58;1.00;;;;;;;25.82;36.57;95258.91;5029911;28;20037;-61
2021/11/02 00:24:15;;;;;;;3.00;1.05;;;;;;;25.82;36.68;95258.91;5025317;28;20033;-62
2021/11/02 00:26:40;;;;;;;1.33;0.98;;;;;;;25.82;36.75;95258.91;5025954;28;20024;-60
2021/11/02 00:29:06;;;;;;;1.52;0.95;;;;;;;25.83;36.53;95260.56;5029785;28;20375;-57
2021/11/02 00:31:31;;;;;;;1.23;0.80;;;;;;;25.82;36.53;95264.16;5023559;28;21653;-60
2021/11/02 00:33:56;;;;;;;3.47;1.17;;;;;;;25.81;36.74;95265.13;5029229;28;20033;-59
2021/11/02 00:36:22;;;;;;;2.15;1.00;;;;;;;25.81;36.51;95261.66;5030115;28;20021;-58
2021/11/02 00:38:47;;;;;;;1.30;0.90;;;;;;;25.81;36.59;95259.88;5030138;28;20119;-59
2021/11/02 00:41:13;;;;;;;1.88;0.90;;;;;;;25.81;36.63;95252.00;5030501;28;20037;-59
2021/11/02 00:43:38;;;;;;;2.83;1.20;;;;;;;25.80;36.59;95245.09;5029531;28;20594;-59
2021/11/02 00:46:04;;;;;;;1.27;0.80;;;;;;;25.80;36.63;95242.47;5007143;28;20033;-60
2021/11/02 00:48:29;;;;;;;0.95;0.80;;;;;;;25.80;36.47;95244.25;5028964;28;20503;-61
2021/11/02 00:50:55;;;;;;;2.83;0.98;;;;;;;25.80;36.47;95247.72;5026071;28;20025;-61
2021/11/02 00:53:20;;;;;;;0.70;0.70;;;;;;;25.80;36.57;95245.09;5029307;28;20032;-60
2021/11/02 00:55:46;;;;;;;1.38;0.88;;;;;;;25.78;36.61;95236.50;5030392;28;20025;-59
2021/11/02 00:58:12;;;;;;;1.58;0.93;;;;;;;25.80;36.64;95245.09;5027687;28;20423;-59
2021/11/02 01:00:37;;;;;;;0.63;0.63;;;;;;;25.78;36.70;95244.34;5025056;28;20051;-58
2021/11/02 01:03:04;;;;;;;0.80;0.65;;;;;;;25.79;36.49;95247.81;5027352;28;20036;-61
2021/11/02 01:05:30;;;;;;;1.33;0.80;;;;;;;25.79;36.51;95243.44;5024814;28;20095;-60
2021/11/02 01:07:55;;;;;;;1.48;1.00;;;;;;;25.79;36.60;95248.69;5020728;28;20029;-60
2021/11/02 01:10:21;;;;;;;3.00;1.05;;;;;;;25.78;36.47;95246.16;5027397;28;20483;-59
2021/11/02 01:12:47;;;;;;;1.33;0.75;;;;;;;25.79;36.51;95251.31;5029783;28;20051;-59
2021/11/02 01:15:16;;;;;;;2.67;0.75;;;;;;;25.79;36.59;95246.06;5032107;28;20091;-58
2021/11/02 01:17:41;;;;;;;1.73;0.98;;;;;;;25.78;36.57;95241.75;5037148;28;20442;-60
2021/11/02 01:20:07;;;;;;;1.17;0.82;;;;;;;25.78;36.48;95240.91;5030253;28;20082;-59
2021/11/02 01:22:33;;;;;;;1.15;1.05;;;;;;;25.78;36.51;95246.16;5035066;28;20037;-59
2021/11/02 01:24:59;;;;;;;1.35;0.90;;;;;;;25.78;36.52;95243.53;5030856;28;20023;-58
2021/11/02 01:27:24;;;;;;;1.70;0.77;;;;;;;25.77;36.62;95240.06;5030204;28;20527;-58
2021/11/02 01:29:50;;;;;;;1.40;0.80;;;;;;;25.77;36.36;95245.31;5029758;28;20029;-59
2021/11/02 01:32:15;;;;;;;0.98;0.50;;;;;;;25.77;36.37;95245.31;5030859;28;20068;-59
2021/11/02 01:34:41;;;;;;;1.02;0.70;;;;;;;25.76;36.56;95243.66;5031922;28;20025;-61
2021/11/02 01:37:07;;;;;;;1.60;0.80;;;;;;;25.76;36.42;95238.41;5030841;28;20313;-62
2021/11/02 01:39:33;;;;;;;1.75;0.80;;;;;;;25.78;36.36;95239.13;5044967;28;20044;-59
2021/11/02 01:41:58;;;;;;;1.17;0.90;;;;;;;25.77;36.27;95232.19;5048638;28;20120;-60
2021/11/02 01:44:24;;;;;;;0.68;0.68;;;;;;;25.78;36.40;95230.44;5029881;28;20033;-59
2021/11/02 01:46:49;;;;;;;1.30;0.70;;;;;;;25.76;36.46;95230.53;5032571;28;20037;-59
2021/11/02 01:49:17;;;;;;;0.80;0.50;;;;;;;25.76;36.33;95238.41;5031671;28;20037;-59
2021/11/02 01:51:42;;;;;;;1.00;0.73;;;;;;;25.77;36.39;95239.22;5032365;28;20044;-59
2021/11/02 01:54:08;;;;;;;1.20;0.80;;;;;;;25.76;36.51;95243.66;5030807;28;20034;-59
2021/11/02 01:56:35;;;;;;;1.25;0.70;;;;;;;25.76;36.36;95238.41;5030982;28;20036;-59
2021/11/02 01:59:01;;;;;;;1.13;0.70;;;;;;;25.76;36.34;95234.94;5031134;28;20087;-58
2021/11/02 02:01:40;;;;;;;0.70;0.70;;;;;;;25.76;36.50;95242.81;5030392;28;20033;-60
2021/11/02 02:04:10;;;;;;;1.88;0.77;;;;;;;25.76;36.45;95237.56;5027584;28;20025;-59
2021/11/02 02:06:42;;;;;;;1.48;0.90;;;;;;;25.76;36.56;95233.16;5029594;28;20022;-59
2021/11/02 02:09:13;;;;;;;1.30;0.60;;;;;;;25.75;36.44;95231.50;5030869;28;20083;-59
2021/11/02 02:11:57;;;;;;;1.65;0.75;;;;;;;25.76;36.51;95234.94;5039327;28;20028;-57
2021/11/02 02:14:40;;;;;;;1.15;0.70;;;;;;;25.75;36.54;95236.75;5031658;28;20075;-58
2021/11/02 02:17:09;;;;;;;1.27;0.90;;;;;;;25.74;36.40;95232.44;5033781;28;20029;-59
2021/11/02 02:19:36;;;;;;;2.78;1.42;;;;;;;25.74;36.36;95229.00;5028171;28;20032;-60
2021/11/02 02:22:10;;;;;;;1.30;1.00;;;;;;;25.73;36.49;95228.16;5029046;28;20036;-59
2021/11/02 02:25:07;;;;;;;2.63;0.90;;;;;;;25.74;36.29;95219.31;5027741;28;20296;-59
2021/11/02 02:27:44;;;;;;;1.02;0.80;;;;;;;25.72;36.34;95221.25;5029352;28;20036;-60
2021/11/02 02:30:12;;;;;;;1.67;0.80;;;;;;;25.72;36.52;95218.63;5029113;28;20462;-59
2021/11/02 02:32:39;;;;;;;3.08;0.80;;;;;;;25.72;36.60;95221.25;5029628;28;20519;-58
2021/11/02 02:35:08;;;;;;;1.65;0.85;;;;;;;25.73;36.56;95211.59;5032734;28;20102;-57
2021/11/02 02:37:34;;;;;;;0.80;0.68;;;;;;;25.74;36.49;95205.38;5032050;28;20048;-60
2021/11/02 02:39:59;;;;;;;1.65;0.65;;;;;;;25.73;36.41;95201.91;5013661;28;20037;-58
2021/11/02 02:42:26;;;;;;;2.70;0.77;;;;;;;25.72;36.43;95205.50;5027113;28;20040;-61
2021/11/02 02:44:52;;;;;;;0.77;0.70;;;;;;;25.73;36.44;95207.16;5028802;28;20487;-57
2021/11/02 02:47:17;;;;;;;1.50;0.70;;;;;;;25.72;36.57;95202.03;5044933;28;20055;-58
2021/11/02 02:49:43;;;;;;;1.27;0.60;;;;;;;25.71;36.61;95203.84;5028252;28;20037;-57
2021/11/02 02:52:09;;;;;;;1.13;0.90;;;;;;;25.72;36.51;95204.66;5030501;28;20044;-60
2021/11/02 02:54:34;;;;;;;1.35;0.70;;;;;;;25.72;36.39;95210.75;5045180;28;20018;-59
2021/11/02 02:57:00;;;;;;;2.03;0.80;;;;;;;25.72;36.49;95205.50;5050970;28;20037;-59
2021/11/02 02:59:25;;;;;;;1.88;0.68;;;;;;;25.73;36.46;95201.09;5052656;28;20025;-58
2021/11/02 03:01:51;;;;;;;0.93;0.70;;;;;;;25.73;36.38;95206.34;5032045;28;20029;-61
2021/11/02 03:04:21;;;;;;;0.70;0.70;;;;;;;25.71;36.54;95209.06;5031440;28;20041;-58
2021/11/02 03:06:49;;;;;;;1.02;0.50;;;;;;;25.72;36.52;95205.50;5048713;28;20579;-59
2021/11/02 03:09:18;;;;;;;0.60;0.40;;;;;;;25.72;36.63;95200.25;5047415;28;20522;-58
2021/11/02 03:11:43;;;;;;;2.75;0.75;;;;;;;25.73;36.43;95196.66;5029442;28;20057;-59
2021/11/02 03:14:19;;;;;;;3.28;0.70;;;;;;;25.72;36.46;95200.25;5044259;28;20033;-59
2021/11/02 03:16:58;;;;;;;1.23;0.60;;;;;;;25.72;36.54;95196.78;5024607;28;20033;-58
2021/11/02 03:49:13;;;;;;;0.68;0.60;;;;;;;25.68;36.44;95198.81;5043443;28;20134;-59
2021/11/02 05:47:09;;;;;;;1.65;0.60;;;;;;;25.51;36.48;95179.94;5033071;28;20095;-60
2021/11/02 05:50:00;;;;;;;2.33;0.40;;;;;;;25.56;36.40;95180.44;5031119;28;20017;-59
2021/11/02 05:57:23;;;;;;;0.40;0.30;;;;;;;25.56;36.63;95187.50;5029417;28;21067;-60
2021/11/02 05:59:56;;;;;;;0.52;0.30;;;;;;;25.56;36.42;95185.69;5026738;28;20043;-60
2021/11/02 06:29:26;;;;;;;0.88;0.30;;;;;;;25.54;36.54;95187.56;5041419;28;22079;-58
2021/11/02 06:31:59;;;;;;;0.40;0.30;;;;;;;25.55;36.44;95191.03;5027720;28;20448;-59
2021/11/02 06:59:11;;;;;;;4.13;0.88;;;;;;;25.49;36.37;95210.72;5025593;28;20040;-58
2021/11/02 07:18:16;;;;;;;18.13;4.35;;;;;;;25.51;36.43;95224.53;5027833;28;20051;-57
2021/11/02 07:29:15;;;;;;;17.40;4.93;;;;;;;25.55;36.43;95223.34;5028464;28;20143;-58
2021/11/02 08:46:58;;;;;;;8.70;3.00;;;;;;;25.76;36.79;95227.91;5037819;28;20068;-60
2021/11/02 08:49:24;;;;;;;9.40;3.03;;;;;;;25.76;36.86;95222.66;5055700;28;20037;-59
2021/11/02 08:51:51;;;;;;;5.88;2.00;;;;;;;25.77;36.84;95231.34;5027116;28;20033;-60
2021/11/02 08:54:17;;;;;;;6.57;2.30;;;;;;;25.77;36.80;95226.09;5043928;28;21604;-60
2021/11/02 08:56:42;;;;;;;9.50;1.48;;;;;;;25.76;35.69;95222.66;5042533;28;20481;-60
2021/11/02 08:59:07;;;;;;;9.68;2.33;;;;;;;25.74;35.08;95223.75;5026271;28;20056;-57
2021/11/02 09:01:36;;;;;;;11.05;2.20;;;;;;;25.74;35.59;95219.31;5024962;28;20018;-58
2021/11/02 09:04:02;;;;;;;7.68;2.20;;;;;;;25.74;35.97;95229.81;5040505;28;20149;-59
2021/11/02 09:06:28;;;;;;;12.80;3.88;;;;;;;25.72;36.21;95223.84;5028414;28;20040;-59
2021/11/02 09:08:54;;;;;;;14.23;4.10;;;;;;;25.73;36.26;95230.78;5034283;28;20079;-57
2021/11/02 09:11:24;;;;;;;9.35;3.30;;;;;;;25.74;36.36;95239.50;5024352;28;20407;-59
2021/11/02 09:13:51;;;;;;;10.30;3.33;;;;;;;25.74;36.36;95229.00;5021670;28;20093;-59
2021/11/02 09:16:17;;;;;;;10.60;3.45;;;;;;;25.72;36.38;95223.84;5025660;28;20038;-59
2021/11/02 09:18:43;;;;;;;8.77;3.13;;;;;;;25.73;36.44;95229.94;5021717;28;20037;-58
2021/11/02 09:21:08;;;;;;;10.88;3.50;;;;;;;25.73;36.70;95230.78;5036613;28;20020;-59
2021/11/02 09:23:34;;;;;;;10.40;2.90;;;;;;;25.73;36.40;95228.16;5017384;28;20029;-58
2021/11/02 09:26:01;;;;;;;11.07;2.50;;;;;;;25.73;36.26;95225.53;5020132;28;20590;-58
2021/11/02 09:28:27;;;;;;;10.60;3.08;;;;;;;25.72;36.43;95221.25;5007563;28;20056;-59
2021/11/02 09:30:53;;;;;;;11.45;3.22;;;;;;;25.73;36.51;95222.91;5043032;28;20439;-59
2021/11/02 09:33:19;;;;;;;6.30;2.60;;;;;;;25.73;36.46;95225.53;5030286;28;20025;-60
2021/11/02 09:35:44;;;;;;;10.50;2.70;;;;;;;25.73;36.44;95228.16;5029862;28;20068;-60
2021/11/02 09:38:28;;;;;;;13.18;3.03;;;;;;;25.73;36.58;95233.38;5031228;28;20033;-58
2021/11/02 09:41:08;;;;;;;13.30;2.85;;;;;;;25.70;33.83;95238.88;5030013;28;20451;-60
2021/11/02 09:44:04;;;;;;;4.83;2.00;;;;;;;25.56;31.64;95235.53;5028613;28;20021;-61
2021/11/02 09:46:48;;;;;;;5.15;1.77;;;;;;;25.42;30.85;95227.84;5028519;28;20108;-60
2021/11/02 09:49:35;;;;;;;3.63;1.85;;;;;;;25.23;30.56;95234.50;5031255;28;20028;-59
2021/11/02 09:52:19;;;;;;;3.08;1.45;;;;;;;25.08;31.02;95228.63;5045391;28;20025;-61
2021/11/02 09:54:50;;;;;;;5.32;1.48;;;;;;;24.98;31.45;95227.66;5030125;28;20514;-59
2021/11/02 09:57:20;;;;;;;6.07;1.88;;;;;;;24.92;32.09;95228.94;5029439;28;20021;-59
2021/11/02 10:00:16;;;;;;;2.63;1.42;;;;;;;24.88;31.92;95223.09;5032529;28;20511;-59
2021/11/02 10:02:53;;;;;;;5.70;1.92;;;;;;;24.85;32.24;95230.34;5044044;28;20419;-58
2021/11/02 10:05:33;;;;;;;7.65;1.80;;;;;;;24.83;32.47;95224.34;5030788;28;20025;-59
2021/11/02 10:08:33;;;;;;;3.50;1.60;;;;;;;24.83;32.47;95229.59;5033005;28;20889;-59
2021/11/02 10:11:04;;;;;;;4.70;1.38;;;;;;;24.82;32.58;95222.69;5028602;28;20610;-59
2021/11/02 10:14:03;;;;;;;5.77;1.37;;;;;;;24.81;32.73;95221.84;5046796;28;20033;-60
2021/11/02 10:16:52;;;;;;;2.67;1.38;;;;;;;24.82;32.73;95222.69;5035252;28;20044;-59
2021/11/02 10:19:59;;;;;;;3.75;1.75;;;;;;;24.82;32.76;95222.69;5048332;28;20445;-59
2021/11/02 10:22:55;;;;;;;5.63;1.45;;;;;;;24.80;33.00;95226.22;5042935;28;20119;-59
2021/11/02 10:25:52;;;;;;;3.75;1.25;;;;;;;24.79;32.88;95224.56;5011076;28;20095;-59
2021/11/02 10:28:55;;;;;;;4.00;1.50;;;;;;;24.79;33.08;95216.72;5027854;28;20033;-59
2021/11/02 10:31:43;;;;;;;4.57;1.17;;;;;;;24.79;33.08;95218.50;5030744;28;20021;-59
2021/11/02 10:34:17;;;;;;;5.15;1.40;;;;;;;24.77;33.33;95213.38;5046169;28;20029;-58
2021/11/02 10:36:51;;;;;;;4.57;1.73;;;;;;;24.77;33.39;95216.00;5017443;28;20386;-59
2021/11/02 10:39:24;;;;;;;2.13;1.13;;;;;;;24.77;33.89;95210.75;5031157;28;20106;-58
2021/11/02 10:42:13;;;;;;;4.63;1.27;;;;;;;24.81;34.13;95206.13;5046872;28;20530;-59
2021/11/02 10:44:39;;;;;;;5.03;1.45;;;;;;;24.84;34.47;95210.31;5027703;28;20031;-58
2021/11/02 10:47:08;;;;;;;8.80;1.60;;;;;;;24.85;34.63;95204.13;5032519;28;20025;-58
2021/11/02 10:50:03;;;;;;;10.75;1.15;;;;;;;24.90;34.58;95209.88;5032148;28;20459;-60
2021/11/02 10:52:31;;;;;;;4.90;1.58;;;;;;;24.92;34.78;95205.34;5042217;28;20441;-57
2021/11/02 10:55:22;;;;;;;4.82;1.00;;;;;;;24.96;34.79;95209.41;5030830;28;20028;-59
2021/11/02 10:58:09;;;;;;;2.75;1.10;;;;;;;24.99;34.70;95203.97;5030356;28;20594;-59
2021/11/02 11:00:36;;;;;;;4.22;1.27;;;;;;;25.03;34.73;95210.63;5023768;28;20388;-60
2021/11/02 11:03:09;;;;;;;3.42;1.23;;;;;;;25.05;34.88;95207.88;5045500;28;20104;-59
2021/11/02 11:05:34;;;;;;;4.55;1.20;;;;;;;25.08;34.78;95210.28;5025797;28;20601;-55
2021/11/02 11:08:01;;;;;;;1.92;1.00;;;;;;;25.12;34.91;95213.50;5029652;28;20124;-57
2021/11/02 11:10:27;;;;;;;2.35;1.10;;;;;;;25.14;34.85;95212.41;5026466;28;20517;-57
2021/11/02 11:12:56;;;;;;;6.13;1.10;;;;;;;25.17;35.14;95206.16;5026139;28;20087;-57
2021/11/02 11:15:22;;;;;;;2.50;1.02;;;;;;;25.18;35.06;95202.56;5040524;28;20082;-57
2021/11/02 11:17:55;;;;;;;7.95;1.50;;;;;;;25.22;35.20;95198.75;5038277;28;20124;-58
2021/11/02 11:20:21;;;;;;;8.63;1.48;;;;;;;25.23;35.41;95205.66;5024207;28;20029;-57
2021/11/02 11:22:53;;;;;;;6.95;1.65;;;;;;;25.26;35.45;95201.97;5041866;28;20055;-59
2021/11/02 11:25:45;;;;;;;9.98;1.67;;;;;;;25.28;35.37;95200.91;5019373;28;20495;-57
2021/11/02 11:28:14;;;;;;;7.45;1.85;;;;;;;25.30;35.42;95204.25;5026629;28;20108;-59
2021/11/02 11:30:40;;;;;;;4.68;1.50;;;;;;;25.33;35.39;95200.56;5023610;28;20571;-58
2021/11/02 11:33:11;;;;;;;5.25;1.67;;;;;;;25.35;35.56;95192.59;5021821;28;20044;-58
2021/11/02 11:35:38;;;;;;;7.43;2.08;;;;;;;25.36;35.41;95205.56;5021160;28;20499;-59
2021/11/02 11:38:05;;;;;;;6.28;1.63;;;;;;;25.38;35.74;95202.81;5041429;28;20034;-58
2021/11/02 11:40:32;;;;;;;8.15;2.22;;;;;;;25.39;35.67;95194.84;5038755;28;20053;-59
2021/11/02 11:42:57;;;;;;;5.30;1.55;;;;;;;25.41;35.56;95194.72;4994967;28;20037;-58
2021/11/02 11:45:25;;;;;;;5.82;1.40;;;;;;;25.40;33.72;95193.88;5017068;28;20479;-60
2021/11/02 11:48:13;;;;;;;2.53;1.40;;;;;;;25.34;32.48;95189.13;5021961;28;20044;-59
2021/11/02 11:50:43;;;;;;;3.42;1.20;;;;;;;25.29;32.19;95189.44;5016614;28;20029;-61
2021/11/02 11:53:08;;;;;;;6.28;1.38;;;;;;;25.21;31.39;95191.84;5016259;28;20043;-58
2021/11/02 11:55:35;;;;;;;3.17;0.82;;;;;;;25.14;31.22;95195.88;5022783;28;20021;-60
2021/11/02 11:58:05;;;;;;;2.42;0.98;;;;;;;25.05;31.15;95195.63;5018021;28;20782;-59
2021/11/02 12:00:31;;;;;;;1.63;0.70;;;;;;;24.96;30.94;95193.69;5018145;28;20040;-58
2021/11/02 12:03:24;;;;;;;2.00;0.63;;;;;;;24.88;30.69;95193.44;5017410;28;20123;-58
2021/11/02 12:06:11;;;;;;;0.68;0.40;;;;;;;24.77;30.71;95181.94;5014778;28;20102;-58
2021/11/02 12:08:59;;;;;;;0.82;0.50;;;;;;;24.67;30.90;95184.41;5016826;28;20589;-61
2021/11/02 12:11:29;;;;;;;4.80;0.70;;;;;;;24.59;31.08;95178.91;5030288;28;20024;-59
2021/11/02 12:14:00;;;;;;;1.98;0.75;;;;;;;24.50;30.71;95180.41;5025163;28;20143;-58
2021/11/02 12:16:34;;;;;;;1.00;0.50;;;;;;;24.44;30.69;95186.09;5029466;28;20037;-59
2021/11/02 12:19:12;;;;;;;2.28;0.68;;;;;;;24.36;30.69;95191.91;5026380;28;20041;-59
2021/11/02 12:21:39;;;;;;;1.35;0.40;;;;;;;24.31;30.81;95183.53;5027303;28;20036;-60
2021/11/02 12:24:07;;;;;;;0.82;0.30;;;;;;;24.25;30.64;95182.19;5025854;28;20063;-60
2021/11/02 12:26:45;;;;;;;2.95;0.90;;;;;;;24.19;30.57;95187.03;5024432;28;20455;-57
2021/11/02 12:29:24;;;;;;;0.85;0.40;;;;;;;24.14;30.70;95192.63;5026164;28;20036;-58
2021/11/02 12:32:00;;;;;;;2.40;0.52;;;;;;;24.11;30.83;95183.19;5019290;28;20028;-59
2021/11/02 12:34:47;;;;;;;1.17;0.73;;;;;;;24.11;31.29;95191.03;5027796;28;20032;-60
2021/11/02 12:37:13;;;;;;;0.70;0.60;;;;;;;24.15;31.87;95186.44;5039482;28;20535;-62
2021/11/02 12:39:38;;;;;;;2.63;0.43;;;;;;;24.19;32.29;95184.44;5009922;28;20059;-61
2021/11/02 12:42:04;;;;;;;1.23;0.55;;;;;;;24.24;32.37;95193.63;5045749;28;20053;-59
2021/11/02 12:44:35;;;;;;;1.02;0.52;;;;;;;24.29;32.83;95189.84;5026912;28;20396;-61
2021/11/02 12:47:03;;;;;;;1.58;0.52;;;;;;;24.35;32.87;95198.09;5020024;28;20145;-61
2021/11/02 12:49:52;;;;;;;4.50;0.50;;;;;;;24.42;33.04;95195.00;4990021;28;20503;-59
2021/11/02 12:52:19;;;;;;;3.30;0.60;;;;;;;24.46;33.03;95189.44;5032271;28;20033;-60
2021/11/02 12:54:56;;;;;;;0.75;0.30;;;;;;;24.51;33.02;95189.94;5015562;28;20094;-59
2021/11/02 12:57:21;;;;;;;2.80;0.70;;;;;;;24.57;33.20;95187.81;5033546;28;20021;-58
2021/11/02 12:59:49;;;;;;;6.35;0.85;;;;;;;24.62;33.33;95188.31;5006288;28;20108;-57
2021/11/02 13:02:34;;;;;;;4.13;0.50;;;;;;;24.67;33.42;95184.41;5018714;28;20028;-57
2021/11/02 13:05:19;;;;;;;1.63;0.40;;;;;;;24.71;33.46;95195.47;5026355;28;20021;-59
2021/11/02 13:07:49;;;;;;;6.45;0.65;;;;;;;24.72;33.40;95186.69;5041581;28;21684;-58
2021/11/02 13:10:20;;;;;;;6.10;0.70;;;;;;;24.77;33.44;95189.81;5032966;28;20495;-61
2021/11/02 13:12:54;;;;;;;1.88;0.50;;;;;;;24.79;33.49;95187.91;5032997;28;20041;-60
2021/11/02 13:15:21;;;;;;;3.67;0.73;;;;;;;24.82;33.45;95186.00;5048025;28;20037;-57
2021/11/02 13:17:49;;;;;;;8.63;0.70;;;;;;;24.85;33.52;95198.91;5047214;28;20374;-60
2021/11/02 13:20:33;;;;;;;3.00;0.55;;;;;;;24.88;33.50;95196.06;5047376;28;20029;-61
2021/11/02 13:22:59;;;;;;;3.67;0.45;;;;;;;24.89;33.55;95195.09;5029404;28;20021;-58
2021/11/02 13:25:35;;;;;;;1.60;0.63;;;;;;;24.92;33.58;95197.50;5025991;28;20086;-59
2021/11/02 13:28:00;;;;;;;4.78;0.50;;;;;;;24.93;33.68;95183.44;5035303;28;20053;-58
2021/11/02 13:30:27;;;;;;;1.58;0.43;;;;;;;24.95;33.63;95191.19;5026547;28;20226;-60
2021/11/02 13:33:12;;;;;;;3.30;0.50;;;;;;;24.97;33.52;95184.06;5030099;28;20033;-59
2021/11/02 13:35:51;;;;;;;1.67;0.47;;;;;;;24.98;33.48;95191.78;5027370;28;20060;-60
2021/11/02 13:38:35;;;;;;;2.75;0.88;;;;;;;25.00;33.46;95189.06;5045252;28;20031;-60
2021/11/02 13:41:12;;;;;;;7.18;0.55;;;;;;;25.00;33.65;95184.66;5029086;28;20044;-61
2021/11/02 13:43:38;;;;;;;0.57;0.40;;;;;;;25.03;33.42;95183.59;5047180;28;20636;-60
2021/11/02 13:46:05;;;;;;;0.98;0.30;;;;;;;25.03;33.60;95187.06;5041731;28;20025;-60
2021/11/02 13:48:32;;;;;;;4.82;0.50;;;;;;;25.03;33.59;95179.19;5031332;28;20024;-59
2021/11/02 13:50:58;;;;;;;2.72;0.68;;;;;;;25.05;33.54;95185.13;5027476;28;20376;-61
2021/11/02 13:53:23;;;;;;;5.65;0.65;;;;;;;25.06;33.44;95188.59;5020283;28;20098;-63
2021/11/02 13:55:50;;;;;;;4.53;0.52;;;;;;;25.07;33.57;95185.03;5024228;28;20028;-60
2021/11/02 13:58:15;;;;;;;3.00;0.40;;;;;;;25.09;33.52;95184.91;5025565;28;20029;-61
2021/11/02 14:00:41;;;;;;;9.70;0.73;;;;;;;25.10;33.42;95197.06;5031316;28;20082;-60
2021/11/02 14:03:09;;;;;;;6.28;1.10;;;;;;;25.11;33.55;95196.09;5043380;28;20527;-60
2021/11/02 14:05:35;;;;;;;8.00;1.50;;;;;;;25.12;33.79;95197.78;5037327;28;20083;-61
2021/11/02 14:08:00;;;;;;;7.20;0.98;;;;;;;25.12;33.77;95206.47;5037619;28;20025;-61
2021/11/02 14:10:29;;;;;;;3.20;0.55;;;;;;;25.15;33.92;95210.66;5020340;28;20209;-59
2021/11/02 14:12:54;;;;;;;5.75;1.10;;;;;;;25.16;34.25;95209.69;5041307;28;20029;-59
2021/11/02 14:15:29;;;;;;;9.82;1.40;;;;;;;25.17;34.64;95216.63;5025099;28;20021;-60
2021/11/02 14:17:58;;;;;;;8.13;1.25;;;;;;;25.19;35.02;95209.47;5020056;28;20428;-59
2021/11/02 14:20:32;;;;;;;7.13;1.00;;;;;;;25.20;35.38;95211.13;5024949;28;20033;-57
2021/11/02 14:22:57;;;;;;;6.93;1.13;;;;;;;25.22;35.60;95219.72;5025612;28;20040;-62
2021/11/02 14:25:34;;;;;;;5.30;1.33;;;;;;;25.24;35.63;95219.63;5023197;28;20033;-57
2021/11/02 14:27:59;;;;;;;8.13;0.93;;;;;;;25.26;35.80;95221.16;5043226;28;20038;-60
2021/11/02 14:30:31;;;;;;;6.25;0.85;;;;;;;25.27;36.11;95228.06;5024336;28;20033;-60
2021/11/02 14:32:59;;;;;;;7.47;1.30;;;;;;;25.29;36.17;95220.91;5022051;28;20126;-61
2021/11/02 14:35:39;;;;;;;7.28;1.55;;;;;;;25.31;36.47;95221.66;5024288;28;20481;-58
2021/11/02 14:38:12;;;;;;;8.43;1.00;;;;;;;25.34;36.34;95228.44;5032578;28;20036;-59
2021/11/02 14:40:39;;;;;;;9.27;0.98;;;;;;;25.35;36.44;95224.88;5028562;28;20021;-58
2021/11/02 14:43:22;;;;;;;4.93;0.65;;;;;;;25.37;36.62;95232.63;5030190;28;20025;-60
2021/11/02 14:46:03;;;;;;;6.35;0.80;;;;;;;25.39;36.55;95233.31;5029339;28;20032;-60
2021/11/02 14:48:32;;;;;;;6.55;0.75;;;;;;;25.40;36.82;95235.84;5022977;28;20384;-59
2021/11/02 14:51:16;;;;;;;5.90;0.80;;;;;;;25.41;36.71;95231.44;5020966;28;21781;-59
2021/11/02 14:53:42;;;;;;;5.20;1.08;;;;;;;25.43;36.95;95237.38;5026972;28;20040;-61
2021/11/02 14:56:09;;;;;;;9.05;0.95;;;;;;;25.44;36.57;95236.47;5026985;28;20139;-60
2021/11/02 15:01:16;;;;;;;9.10;1.15;;;;;;;25.45;36.84;95232.88;5030366;28;20041;-59
2021/11/02 15:03:57;;;;;;;8.13;1.00;;;;;;;25.47;36.79;95227.53;5036613;28;20064;-60
2021/11/02 15:06:41;;;;;;;8.60;1.35;;;;;;;25.49;36.77;95241.34;5027547;28;20032;-58
2021/11/02 15:09:15;;;;;;;5.70;1.80;;;;;;;25.49;36.67;95241.34;5042650;28;20043;-60
2021/11/02 15:11:42;;;;;;;10.65;1.73;;;;;;;25.49;36.93;95242.19;5047475;28;20032;-60
2021/11/02 15:14:13;;;;;;;10.63;1.88;;;;;;;25.51;36.79;95244.69;5033120;28;20141;-59
2021/11/02 15:16:46;;;;;;;9.68;2.17;;;;;;;25.52;36.77;95254.22;5045022;28;20118;-58
2021/11/02 15:19:12;;;;;;;5.28;1.58;;;;;;;25.53;36.75;95253.25;5044645;28;20078;-60
2021/11/02 15:21:39;;;;;;;11.25;2.40;;;;;;;25.54;36.75;95237.41;5044767;28;20057;-60
2021/11/02 15:24:07;;;;;;;7.57;1.80;;;;;;;25.55;36.67;95240.88;5030887;28;20035;-58
2021/11/02 15:26:55;;;;;;;8.75;1.95;;;;;;;25.55;36.79;95239.06;5031104;28;20482;-58
2021/11/02 15:29:23;;;;;;;5.72;1.42;;;;;;;25.55;36.62;95236.44;5031622;28;20541;-59
2021/11/02 15:32:00;;;;;;;9.55;1.75;;;;;;;25.56;36.64;95235.53;5025033;28;20033;-61
2021/11/02 15:34:41;;;;;;;7.97;1.88;;;;;;;25.57;36.73;95239.84;4996528;28;20029;-60
2021/11/02 15:37:20;;;;;;;4.82;1.48;;;;;;;25.57;36.70;95234.59;5044105;28;20074;-59
2021/11/02 15:39:54;;;;;;;4.97;1.63;;;;;;;25.57;36.64;95239.84;5044816;28;20025;-59
2021/11/02 15:42:33;;;;;;;4.90;1.48;;;;;;;25.58;36.53;95240.66;5030547;28;20028;-60
2021/11/02 15:45:06;;;;;;;5.97;1.67;;;;;;;25.60;36.67;95243.16;5031386;28;20025;-59
2021/11/02 15:47:34;;;;;;;4.20;1.80;;;;;;;25.60;36.61;95248.41;5013737;28;20247;-59
2021/11/02 15:50:05;;;;;;;5.10;1.60;;;;;;;25.59;36.55;95241.50;5030285;28;20017;-60
2021/11/02 15:52:31;;;;;;;9.13;1.70;;;;;;;25.60;36.57;95246.63;5029886;28;20051;-58
2021/11/02 15:55:05;;;;;;;8.02;2.00;;;;;;;25.60;36.52;95259.75;5029224;28;20087;-58
2021/11/02 15:57:38;;;;;;;5.28;1.52;;;;;;;25.60;36.64;95258.91;5016322;28;20022;-61
2021/11/02 16:00:05;;;;;;;3.28;1.20;;;;;;;25.61;36.61;95255.31;5028398;28;20017;-60
2021/11/02 16:02:38;;;;;;;6.18;1.70;;;;;;;25.60;36.55;95253.66;5045451;28;20483;-58
2021/11/02 16:05:06;;;;;;;5.47;1.48;;;;;;;25.61;36.65;95255.31;5043045;28;20116;-59
2021/11/02 16:07:32;;;;;;;5.57;1.60;;;;;;;25.62;36.62;95259.63;5028520;28;20025;-57
2021/11/02 16:09:57;;;;;;;3.90;1.38;;;;;;;25.62;36.56;95262.25;5030634;28;20033;-59
2021/11/02 16:12:35;;;;;;;4.40;1.52;;;;;;;25.62;36.46;95267.50;5029694;28;20029;-62
2021/11/02 16:15:18;;;;;;;3.33;1.25;;;;;;;25.62;36.63;95262.25;5026472;28;20064;-59
2021/11/02 16:17:47;;;;;;;4.95;1.30;;;;;;;25.61;36.55;95264.03;5031259;28;20110;-58
2021/11/02 16:20:34;;;;;;;5.50;1.60;;;;;;;25.62;36.46;95264.88;5032093;28;20021;-60
2021/11/02 16:23:20;;;;;;;7.30;1.70;;;;;;;25.62;36.56;95265.69;5027811;28;20025;-60
2021/11/02 16:25:56;;;;;;;6.03;1.65;;;;;;;25.61;36.39;95271.91;5012905;28;20021;-60
2021/11/02 16:28:27;;;;;;;3.10;1.23;;;;;;;25.62;36.44;95270.94;5029688;28;20372;-61
2021/11/02 16:30:54;;;;;;;4.00;1.60;;;;;;;25.62;36.42;95268.31;5043732;28;20061;-60
2021/11/02 16:33:33;;;;;;;3.90;1.20;;;;;;;25.62;36.37;95267.50;5027689;28;20036;-60
2021/11/02 16:36:33;;;;;;;3.40;1.10;;;;;;;25.63;36.50;95266.56;5028402;28;20435;-59
2021/11/02 16:39:21;;;;;;;6.43;1.65;;;;;;;25.61;36.37;95261.41;5023935;28;20045;-59
2021/11/02 16:41:51;;;;;;;5.68;1.30;;;;;;;25.63;36.56;95271.78;5044114;28;20033;-60
2021/11/02 16:44:33;;;;;;;4.07;1.48;;;;;;;25.63;36.52;95269.16;5032566;28;20492;-59
2021/11/02 16:47:14;;;;;;;3.95;1.35;;;;;;;25.62;36.58;95264.88;5049197;28;20057;-58
2021/11/02 16:49:39;;;;;;;3.67;1.10;;;;;;;25.61;36.33;95276.31;5033509;28;20063;-58
2021/11/02 16:52:09;;;;;;;2.95;1.13;;;;;;;25.60;36.38;95267.63;5047992;28;20024;-58
2021/11/02 16:54:40;;;;;;;4.75;1.30;;;;;;;25.60;36.35;95274.66;5030459;28;20078;-59
2021/11/02 16:57:18;;;;;;;4.28;1.48;;;;;;;25.62;36.47;95275.38;5034508;28;20620;-60
2021/11/02 16:59:50;;;;;;;5.55;1.00;;;;;;;25.62;36.29;95278.00;5034213;28;20068;-59